sensor_id;sensor_type;location;lat;lon;timestamp;pressure;altitude;pressure_sealevel;temperature;humidity
35716;BME280;21840;44.920;8.616;2022-09-09T00:01:37;99921.06;;;26.29;52.96
35716;BME280;21840;44.920;8.616;2022-09-09T00:06:46;99921.00;;;26.24;52.99
35716;BME280;21840;44.920;8.616;2022-09-09T00:09:22;99922.69;;;26.52;52.33
35716;BME280;21840;44.920;8.616;2022-09-09T00:11:52;99928.94;;;26.36;52.54
35716;BME280;21840;44.920;8.616;2022-09-09T00:16:51;99925.63;;;26.51;51.62
35716;BME280;21840;44.920;8.616;2022-09-09T00:19:30;99910.16;;;26.41;51.90
35716;BME280;21840;44.920;8.616;2022-09-09T00:22:18;99915.34;;;26.25;52.24
35716;BME280;21840;44.920;8.616;2022-09-09T00:24:45;99905.09;;;26.22;52.28
35716;BME280;21840;44.920;8.616;2022-09-09T00:27:16;99909.50;;;26.29;51.90
35716;BME280;21840;44.920;8.616;2022-09-09T00:29:45;99901.25;;;26.18;52.08
35716;BME280;21840;44.920;8.616;2022-09-09T00:32:18;99904.88;;;26.07;52.47
35716;BME280;21840;44.920;8.616;2022-09-09T00:35:04;99897.19;;;25.94;52.73
35716;BME280;21840;44.920;8.616;2022-09-09T00:37:32;99892.34;;;25.96;52.67
35716;BME280;21840;44.920;8.616;2022-09-09T00:40:00;99890.84;;;26.05;52.18
35716;BME280;21840;44.920;8.616;2022-09-09T00:42:41;99889.34;;;25.92;52.29
35716;BME280;21840;44.920;8.616;2022-09-09T00:47:53;99881.59;;;25.79;51.77
35716;BME280;21840;44.920;8.616;2022-09-09T00:50:25;99886.91;;;25.74;51.49
35716;BME280;21840;44.920;8.616;2022-09-09T00:57:52;99876.50;;;25.44;50.30
35716;BME280;21840;44.920;8.616;2022-09-09T01:00:31;99869.97;;;25.56;50.00
35716;BME280;21840;44.920;8.616;2022-09-09T01:07:57;99868.00;;;25.52;49.14
35716;BME280;21840;44.920;8.616;2022-09-09T01:10:29;99861.97;;;25.61;49.14
35716;BME280;21840;44.920;8.616;2022-09-09T01:12:58;99860.91;;;25.63;48.96
35716;BME280;21840;44.920;8.616;2022-09-09T01:15:28;99861.78;;;25.68;48.57
35716;BME280;21840;44.920;8.616;2022-09-09T01:18:14;99864.09;;;25.59;48.62
35716;BME280;21840;44.920;8.616;2022-09-09T01:26:19;99876.06;;;25.69;47.86
35716;BME280;21840;44.920;8.616;2022-09-09T01:28:47;99880.38;;;25.36;49.03
35716;BME280;21840;44.920;8.616;2022-09-09T01:31:17;99880.38;;;25.36;49.94
35716;BME280;21840;44.920;8.616;2022-09-09T01:33:45;99882.44;;;25.29;50.00
35716;BME280;21840;44.920;8.616;2022-09-09T01:38:44;99888.06;;;24.70;55.28
35716;BME280;21840;44.920;8.616;2022-09-09T01:41:10;99880.16;;;24.92;54.82
35716;BME280;21840;44.920;8.616;2022-09-09T01:43:43;99887.00;;;24.71;55.37
35716;BME280;21840;44.920;8.616;2022-09-09T01:46:09;99880.44;;;24.38;56.17
35716;BME280;21840;44.920;8.616;2022-09-09T01:48:36;99884.28;;;24.30;56.86
35716;BME280;21840;44.920;8.616;2022-09-09T01:51:08;99884.63;;;24.46;56.73
35716;BME280;21840;44.920;8.616;2022-09-09T01:53:34;99881.38;;;24.44;56.02
35716;BME280;21840;44.920;8.616;2022-09-09T02:01:27;99888.16;;;24.35;55.18
35716;BME280;21840;44.920;8.616;2022-09-09T02:03:59;99881.63;;;24.30;55.05
35716;BME280;21840;44.920;8.616;2022-09-09T02:06:28;99884.63;;;24.46;54.49
35716;BME280;21840;44.920;8.616;2022-09-09T02:09:04;99886.97;;;24.54;54.35
35716;BME280;21840;44.920;8.616;2022-09-09T02:11:31;99887.09;;;24.76;53.90
35716;BME280;21840;44.920;8.616;2022-09-09T02:14:22;99887.53;;;24.56;54.34
35716;BME280;21840;44.920;8.616;2022-09-09T02:16:53;99890.44;;;24.83;53.56
35716;BME280;21840;44.920;8.616;2022-09-09T02:19:25;99889.19;;;25.03;53.19
35716;BME280;21840;44.920;8.616;2022-09-09T02:22:15;99886.66;;;24.96;52.62
35716;BME280;21840;44.920;8.616;2022-09-09T02:24:42;99888.00;;;25.10;52.48
35716;BME280;21840;44.920;8.616;2022-09-09T02:27:15;99887.16;;;25.22;52.14
35716;BME280;21840;44.920;8.616;2022-09-09T02:29:43;99885.13;;;25.29;52.35
35716;BME280;21840;44.920;8.616;2022-09-09T02:32:14;99885.34;;;25.27;52.24
35716;BME280;21840;44.920;8.616;2022-09-09T02:34:45;99879.41;;;25.42;52.07
35716;BME280;21840;44.920;8.616;2022-09-09T02:37:12;99881.03;;;25.43;52.18
35716;BME280;21840;44.920;8.616;2022-09-09T02:39:44;99880.22;;;25.26;52.25
35716;BME280;21840;44.920;8.616;2022-09-09T02:42:13;99877.28;;;25.27;52.11
35716;BME280;21840;44.920;8.616;2022-09-09T02:44:41;99875.91;;;25.25;51.88
35716;BME280;21840;44.920;8.616;2022-09-09T02:52:17;99863.00;;;25.10;52.54
35716;BME280;21840;44.920;8.616;2022-09-09T02:54:44;99861.91;;;25.23;52.49
35716;BME280;21840;44.920;8.616;2022-09-09T02:57:24;99856.63;;;25.16;52.84
35716;BME280;21840;44.920;8.616;2022-09-09T02:59:53;99864.97;;;25.14;53.56
35716;BME280;21840;44.920;8.616;2022-09-09T03:02:22;99865.75;;;24.98;53.76
35716;BME280;21840;44.920;8.616;2022-09-09T03:04:53;99857.09;;;24.96;54.17
35716;BME280;21840;44.920;8.616;2022-09-09T03:07:19;99860.47;;;25.03;53.65
35716;BME280;21840;44.920;8.616;2022-09-09T03:09:45;99860.13;;;25.00;54.36
35716;BME280;21840;44.920;8.616;2022-09-09T03:12:11;99867.66;;;24.86;54.33
35716;BME280;21840;44.920;8.616;2022-09-09T03:14:37;99865.25;;;24.84;54.25
35716;BME280;21840;44.920;8.616;2022-09-09T03:17:03;99867.22;;;24.89;54.04
35716;BME280;21840;44.920;8.616;2022-09-09T03:19:35;99865.19;;;24.67;53.99
35716;BME280;21840;44.920;8.616;2022-09-09T03:22:01;99870.56;;;24.67;54.02
35716;BME280;21840;44.920;8.616;2022-09-09T03:24:29;99864.03;;;24.63;54.14
35716;BME280;21840;44.920;8.616;2022-09-09T03:26:55;99864.91;;;24.52;54.94
35716;BME280;21840;44.920;8.616;2022-09-09T03:29:21;99862.31;;;24.57;54.80
35716;BME280;21840;44.920;8.616;2022-09-09T03:31:47;99864.97;;;24.69;54.35
35716;BME280;21840;44.920;8.616;2022-09-09T03:34:12;99870.13;;;23.95;56.46
35716;BME280;21840;44.920;8.616;2022-09-09T03:36:39;99867.97;;;24.32;56.05
35716;BME280;21840;44.920;8.616;2022-09-09T03:39:06;99865.78;;;24.17;56.71
35716;BME280;21840;44.920;8.616;2022-09-09T03:41:31;99869.38;;;24.35;56.09
35716;BME280;21840;44.920;8.616;2022-09-09T03:43:59;99863.16;;;24.46;55.82
35716;BME280;21840;44.920;8.616;2022-09-09T03:46:26;99875.16;;;24.55;55.38
35716;BME280;21840;44.920;8.616;2022-09-09T03:48:52;99872.25;;;24.57;55.06
35716;BME280;21840;44.920;8.616;2022-09-09T03:51:18;99871.28;;;24.63;54.90
35716;BME280;21840;44.920;8.616;2022-09-09T03:53:44;99863.84;;;24.53;55.09
35716;BME280;21840;44.920;8.616;2022-09-09T03:56:11;99876.34;;;24.47;55.42
35716;BME280;21840;44.920;8.616;2022-09-09T03:58:36;99878.69;;;24.44;55.84
35716;BME280;21840;44.920;8.616;2022-09-09T04:01:11;99876.72;;;24.27;56.16
35716;BME280;21840;44.920;8.616;2022-09-09T04:03:38;99887.78;;;24.54;55.07
35716;BME280;21840;44.920;8.616;2022-09-09T04:06:05;99898.41;;;24.38;55.28
35716;BME280;21840;44.920;8.616;2022-09-09T04:08:32;99903.47;;;24.22;55.20
35716;BME280;21840;44.920;8.616;2022-09-09T04:10:58;99898.00;;;23.94;56.10
35716;BME280;21840;44.920;8.616;2022-09-09T04:13:26;99901.38;;;24.01;56.21
35716;BME280;21840;44.920;8.616;2022-09-09T04:15:52;99898.25;;;24.04;56.16
35716;BME280;21840;44.920;8.616;2022-09-09T04:18:18;99904.31;;;23.87;56.24
35716;BME280;21840;44.920;8.616;2022-09-09T04:20:48;99898.16;;;23.21;58.49
35716;BME280;21840;44.920;8.616;2022-09-09T04:23:17;99896.78;;;23.66;57.30
35716;BME280;21840;44.920;8.616;2022-09-09T04:25:46;99896.72;;;23.84;57.19
35716;BME280;21840;44.920;8.616;2022-09-09T04:28:13;99918.41;;;23.95;56.72
35716;BME280;21840;44.920;8.616;2022-09-09T04:30:39;99919.69;;;24.04;56.74
35716;BME280;21840;44.920;8.616;2022-09-09T04:33:06;99929.03;;;23.89;57.30
35716;BME280;21840;44.920;8.616;2022-09-09T04:35:31;99911.19;;;24.07;56.88
35716;BME280;21840;44.920;8.616;2022-09-09T04:37:57;99911.28;;;24.00;57.73
35716;BME280;21840;44.920;8.616;2022-09-09T04:40:23;99905.34;;;24.10;57.64
35716;BME280;21840;44.920;8.616;2022-09-09T04:42:48;99900.56;;;24.12;57.75
35716;BME280;21840;44.920;8.616;2022-09-09T04:45:14;99901.84;;;24.09;58.07
35716;BME280;21840;44.920;8.616;2022-09-09T04:47:41;99909.53;;;24.06;58.24
35716;BME280;21840;44.920;8.616;2022-09-09T04:50:08;99902.44;;;24.00;58.68
35716;BME280;21840;44.920;8.616;2022-09-09T04:52:34;99901.38;;;24.01;58.54
35716;BME280;21840;44.920;8.616;2022-09-09T04:54:59;99895.56;;;24.04;58.69
35716;BME280;21840;44.920;8.616;2022-09-09T04:57:25;99897.06;;;24.00;58.92
35716;BME280;21840;44.920;8.616;2022-09-09T04:59:51;99899.00;;;24.16;58.51
35716;BME280;21840;44.920;8.616;2022-09-09T05:02:16;99899.50;;;24.13;58.68
35716;BME280;21840;44.920;8.616;2022-09-09T05:04:42;99912.56;;;24.09;58.66
35716;BME280;21840;44.920;8.616;2022-09-09T05:07:07;99906.94;;;24.23;58.49
35716;BME280;21840;44.920;8.616;2022-09-09T05:09:33;99909.03;;;24.32;57.95
35716;BME280;21840;44.920;8.616;2022-09-09T05:11:59;99901.69;;;24.16;58.67
35716;BME280;21840;44.920;8.616;2022-09-09T05:14:29;99902.97;;;24.25;58.23
35716;BME280;21840;44.920;8.616;2022-09-09T05:16:55;99898.19;;;24.27;58.26
35716;BME280;21840;44.920;8.616;2022-09-09T05:19:22;99884.06;;;24.32;57.99
35716;BME280;21840;44.920;8.616;2022-09-09T05:21:51;99894.56;;;24.45;57.85
35716;BME280;21840;44.920;8.616;2022-09-09T05:24:20;99897.34;;;24.50;57.38
35716;BME280;21840;44.920;8.616;2022-09-09T05:26:49;99900.38;;;24.54;57.15
35716;BME280;21840;44.920;8.616;2022-09-09T05:29:15;99903.53;;;24.51;57.17
35716;BME280;21840;44.920;8.616;2022-09-09T05:31:43;99910.66;;;24.57;56.88
35716;BME280;21840;44.920;8.616;2022-09-09T05:34:13;99911.59;;;24.39;57.41
35716;BME280;21840;44.920;8.616;2022-09-09T05:36:38;99909.47;;;24.53;57.07
35716;BME280;21840;44.920;8.616;2022-09-09T05:39:04;99906.91;;;24.58;56.82
35716;BME280;21840;44.920;8.616;2022-09-09T05:41:31;99910.13;;;24.72;56.44
35716;BME280;21840;44.920;8.616;2022-09-09T05:44:00;99917.84;;;24.68;56.21
35716;BME280;21840;44.920;8.616;2022-09-09T05:46:26;99922.84;;;24.77;56.47
35716;BME280;21840;44.920;8.616;2022-09-09T05:48:53;99920.09;;;24.88;56.32
35716;BME280;21840;44.920;8.616;2022-09-09T05:51:25;99924.34;;;24.84;56.20
35716;BME280;21840;44.920;8.616;2022-09-09T05:53:54;99921.38;;;24.86;56.03
35716;BME280;21840;44.920;8.616;2022-09-09T05:56:29;99924.16;;;24.91;56.16
35716;BME280;21840;44.920;8.616;2022-09-09T05:58:56;99923.03;;;24.87;56.05
35716;BME280;21840;44.920;8.616;2022-09-09T06:01:24;99932.50;;;24.89;55.96
35716;BME280;21840;44.920;8.616;2022-09-09T06:03:50;99929.00;;;24.89;56.10
35716;BME280;21840;44.920;8.616;2022-09-09T06:06:17;99938.81;;;25.12;55.36
35716;BME280;21840;44.920;8.616;2022-09-09T06:08:50;99938.72;;;25.35;54.84
35716;BME280;21840;44.920;8.616;2022-09-09T06:11:21;99942.72;;;25.50;54.05
35716;BME280;21840;44.920;8.616;2022-09-09T06:13:47;99949.16;;;25.82;53.41
35716;BME280;21840;44.920;8.616;2022-09-09T06:16:16;99957.00;;;25.84;53.40
35716;BME280;21840;44.920;8.616;2022-09-09T06:18:42;99968.97;;;26.10;52.92
35716;BME280;21840;44.920;8.616;2022-09-09T06:21:10;99971.72;;;26.32;52.44
35716;BME280;21840;44.920;8.616;2022-09-09T06:23:36;99986.91;;;26.21;52.59
35716;BME280;21840;44.920;8.616;2022-09-09T06:26:15;100003.91;;;26.44;52.04
35716;BME280;21840;44.920;8.616;2022-09-09T06:28:43;100003.44;;;26.30;52.28
35716;BME280;21840;44.920;8.616;2022-09-09T06:31:09;99996.50;;;26.34;51.92
35716;BME280;21840;44.920;8.616;2022-09-09T06:33:36;99999.56;;;26.21;52.52
35716;BME280;21840;44.920;8.616;2022-09-09T06:36:03;99998.72;;;26.20;52.47
35716;BME280;21840;44.920;8.616;2022-09-09T06:38:29;100006.69;;;26.32;52.29
35716;BME280;21840;44.920;8.616;2022-09-09T06:40:56;99999.63;;;26.26;52.43
35716;BME280;21840;44.920;8.616;2022-09-09T06:43:23;99994.47;;;26.24;52.27
35716;BME280;21840;44.920;8.616;2022-09-09T06:46:01;99987.72;;;25.88;53.33
35716;BME280;21840;44.920;8.616;2022-09-09T06:48:27;99985.19;;;25.98;52.93
35716;BME280;21840;44.920;8.616;2022-09-09T06:51:03;99994.66;;;26.18;52.30
35716;BME280;21840;44.920;8.616;2022-09-09T06:53:29;100004.44;;;26.07;52.58
35716;BME280;21840;44.920;8.616;2022-09-09T06:55:55;99997.75;;;25.93;53.50
35716;BME280;21840;44.920;8.616;2022-09-09T06:58:21;100006.84;;;25.58;54.46
35716;BME280;21840;44.920;8.616;2022-09-09T07:00:50;100006.19;;;25.68;54.15
35716;BME280;21840;44.920;8.616;2022-09-09T07:03:16;100014.50;;;25.49;54.58
35716;BME280;21840;44.920;8.616;2022-09-09T07:05:42;100008.41;;;25.54;54.71
35716;BME280;21840;44.920;8.616;2022-09-09T07:08:10;100005.25;;;25.74;53.71
35716;BME280;21840;44.920;8.616;2022-09-09T07:10:35;100016.41;;;25.82;53.69
35716;BME280;21840;44.920;8.616;2022-09-09T07:13:01;100008.03;;;25.79;53.87
35716;BME280;21840;44.920;8.616;2022-09-09T07:15:27;100010.72;;;25.79;54.26
35716;BME280;21840;44.920;8.616;2022-09-09T07:17:53;100014.78;;;25.98;53.28
35716;BME280;21840;44.920;8.616;2022-09-09T07:20:19;100016.38;;;25.94;53.72
35716;BME280;21840;44.920;8.616;2022-09-09T07:22:45;100010.53;;;26.36;52.84
35716;BME280;21840;44.920;8.616;2022-09-09T07:25:11;100006.66;;;26.66;51.83
35716;BME280;21840;44.920;8.616;2022-09-09T07:27:36;100010.66;;;26.85;51.37
35716;BME280;21840;44.920;8.616;2022-09-09T07:30:03;100010.28;;;26.77;51.66
35716;BME280;21840;44.920;8.616;2022-09-09T07:32:32;100017.44;;;26.49;52.12
35716;BME280;21840;44.920;8.616;2022-09-09T07:34:58;100020.81;;;26.39;52.16
35716;BME280;21840;44.920;8.616;2022-09-09T07:37:25;100028.97;;;26.28;52.74
35716;BME280;21840;44.920;8.616;2022-09-09T07:39:52;100024.22;;;26.52;51.70
35716;BME280;21840;44.920;8.616;2022-09-09T07:42:17;100018.75;;;26.63;51.33
35716;BME280;21840;44.920;8.616;2022-09-09T07:44:42;100019.88;;;26.67;51.07
35716;BME280;21840;44.920;8.616;2022-09-09T07:47:11;100013.66;;;26.67;51.12
35716;BME280;21840;44.920;8.616;2022-09-09T07:49:43;100025.25;;;26.67;51.22
35716;BME280;21840;44.920;8.616;2022-09-09T07:52:12;100023.44;;;26.73;51.46
35716;BME280;21840;44.920;8.616;2022-09-09T07:54:40;100026.75;;;26.58;51.82
35716;BME280;21840;44.920;8.616;2022-09-09T07:57:06;100034.44;;;26.88;50.78
35716;BME280;21840;44.920;8.616;2022-09-09T07:59:34;100035.22;;;26.89;50.95
35716;BME280;21840;44.920;8.616;2022-09-09T08:02:00;100037.94;;;26.89;50.59
35716;BME280;21840;44.920;8.616;2022-09-09T08:04:28;100030.75;;;27.44;49.67
35716;BME280;21840;44.920;8.616;2022-09-09T08:06:58;100037.75;;;27.45;48.85
35716;BME280;21840;44.920;8.616;2022-09-09T08:09:26;100037.47;;;27.68;48.01
35716;BME280;21840;44.920;8.616;2022-09-09T08:11:56;100034.50;;;27.43;48.36
35716;BME280;21840;44.920;8.616;2022-09-09T08:14:23;100048.25;;;27.68;47.65
35716;BME280;21840;44.920;8.616;2022-09-09T08:16:49;100041.31;;;27.50;48.47
35716;BME280;21840;44.920;8.616;2022-09-09T08:19:18;100042.53;;;27.38;48.69
35716;BME280;21840;44.920;8.616;2022-09-09T08:21:45;100049.78;;;27.86;47.39
35716;BME280;21840;44.920;8.616;2022-09-09T08:24:11;100045.44;;;28.17;46.89
35716;BME280;21840;44.920;8.616;2022-09-09T08:26:39;100046.75;;;28.15;46.77
35716;BME280;21840;44.920;8.616;2022-09-09T08:29:08;100049.28;;;28.27;46.45
35716;BME280;21840;44.920;8.616;2022-09-09T08:31:36;100055.03;;;28.40;46.29
35716;BME280;21840;44.920;8.616;2022-09-09T08:34:04;100047.84;;;28.51;46.06
35716;BME280;21840;44.920;8.616;2022-09-09T08:36:32;100049.53;;;28.68;45.58
35716;BME280;21840;44.920;8.616;2022-09-09T08:38:58;100051.09;;;28.16;46.67
35716;BME280;21840;44.920;8.616;2022-09-09T08:49:24;100047.50;;;27.78;48.28
35716;BME280;21840;44.920;8.616;2022-09-09T08:52:00;100068.03;;;28.06;47.61
35716;BME280;21840;44.920;8.616;2022-09-09T08:54:27;100064.78;;;28.04;47.64
35716;BME280;21840;44.920;8.616;2022-09-09T08:56:53;100059.28;;;27.94;47.50
35716;BME280;21840;44.920;8.616;2022-09-09T08:59:19;100063.75;;;28.15;47.40
35716;BME280;21840;44.920;8.616;2022-09-09T09:04:33;100061.34;;;28.14;45.93
35716;BME280;21840;44.920;8.616;2022-09-09T09:07:07;100066.13;;;28.39;46.01
35716;BME280;21840;44.920;8.616;2022-09-09T09:12:23;100074.06;;;28.51;45.79
35716;BME280;21840;44.920;8.616;2022-09-09T09:14:50;100077.72;;;28.77;45.54
35716;BME280;21840;44.920;8.616;2022-09-09T09:17:20;100076.81;;;29.09;44.83
35716;BME280;21840;44.920;8.616;2022-09-09T09:19:47;100068.22;;;29.32;44.50
35716;BME280;21840;44.920;8.616;2022-09-09T09:22:20;100069.09;;;29.58;43.84
35716;BME280;21840;44.920;8.616;2022-09-09T09:27:28;100057.25;;;30.16;42.12
35716;BME280;21840;44.920;8.616;2022-09-09T09:29:56;100051.25;;;30.44;41.98
35716;BME280;21840;44.920;8.616;2022-09-09T09:32:23;100055.25;;;30.67;41.06
35716;BME280;21840;44.920;8.616;2022-09-09T09:34:55;100047.16;;;30.52;40.65
35716;BME280;21840;44.920;8.616;2022-09-09T09:37:29;100040.69;;;30.43;40.78
35716;BME280;21840;44.920;8.616;2022-09-09T09:40:06;100042.91;;;30.25;41.07
35716;BME280;21840;44.920;8.616;2022-09-09T09:42:32;100045.03;;;30.03;41.28
35716;BME280;21840;44.920;8.616;2022-09-09T09:45:07;100045.59;;;30.05;41.23
35716;BME280;21840;44.920;8.616;2022-09-09T09:47:32;100053.69;;;30.20;40.95
35716;BME280;21840;44.920;8.616;2022-09-09T09:50:17;100040.16;;;30.10;41.22
35716;BME280;21840;44.920;8.616;2022-09-09T09:52:42;100044.78;;;30.25;41.32
35716;BME280;21840;44.920;8.616;2022-09-09T09:55:18;100048.31;;;30.30;41.14
35716;BME280;21840;44.920;8.616;2022-09-09T09:57:45;100036.38;;;30.26;41.22
35716;BME280;21840;44.920;8.616;2022-09-09T10:00:18;100040.44;;;30.39;41.29
35716;BME280;21840;44.920;8.616;2022-09-09T10:02:51;100039.84;;;30.47;41.22
35716;BME280;21840;44.920;8.616;2022-09-09T10:05:25;100033.09;;;30.45;41.05
35716;BME280;21840;44.920;8.616;2022-09-09T10:08:09;100037.19;;;30.06;41.84
35716;BME280;21840;44.920;8.616;2022-09-09T10:11:12;100038.31;;;28.86;44.40
35716;BME280;21840;44.920;8.616;2022-09-09T10:19:04;100039.03;;;30.52;41.40
35716;BME280;21840;44.920;8.616;2022-09-09T10:36:42;100027.03;;;31.78;38.36
35716;BME280;21840;44.920;8.616;2022-09-09T10:52:26;100013.78;;;31.27;38.03
35716;BME280;21840;44.920;8.616;2022-09-09T10:57:39;100014.19;;;31.05;39.12
35716;BME280;21840;44.920;8.616;2022-09-09T11:00:14;100007.28;;;30.63;40.21
35716;BME280;21840;44.920;8.616;2022-09-09T11:02:41;100005.41;;;30.63;40.14
35716;BME280;21840;44.920;8.616;2022-09-09T11:05:19;100006.22;;;30.64;40.06
35716;BME280;21840;44.920;8.616;2022-09-09T11:10:45;99999.28;;;30.27;40.31
35716;BME280;21840;44.920;8.616;2022-09-09T11:13:23;99991.41;;;30.36;40.24
35716;BME280;21840;44.920;8.616;2022-09-09T11:15:52;99990.78;;;30.59;39.93
35716;BME280;21840;44.920;8.616;2022-09-09T11:18:21;99987.34;;;30.33;40.22
35716;BME280;21840;44.920;8.616;2022-09-09T11:20:50;99986.53;;;30.22;40.00
35716;BME280;21840;44.920;8.616;2022-09-09T11:23:24;99983.00;;;30.32;39.93
35716;BME280;21840;44.920;8.616;2022-09-09T11:25:56;99980.03;;;30.28;39.81
35716;BME280;21840;44.920;8.616;2022-09-09T11:36:55;99970.75;;;30.50;39.18
35716;BME280;21840;44.920;8.616;2022-09-09T11:41:46;99974.00;;;30.52;38.73
35716;BME280;21840;44.920;8.616;2022-09-09T11:44:12;99965.59;;;30.59;38.24
35716;BME280;21840;44.920;8.616;2022-09-09T11:46:39;99963.91;;;30.68;37.96
35716;BME280;21840;44.920;8.616;2022-09-09T11:49:06;99968.00;;;30.65;37.66
35716;BME280;21840;44.920;8.616;2022-09-09T11:51:50;99971.25;;;30.62;37.05
35716;BME280;21840;44.920;8.616;2022-09-09T11:54:31;99967.81;;;30.41;36.97
35716;BME280;21840;44.920;8.616;2022-09-09T11:56:57;99966.66;;;30.52;36.69
35716;BME280;21840;44.920;8.616;2022-09-09T12:01:57;99957.66;;;30.67;36.52
35716;BME280;21840;44.920;8.616;2022-09-09T12:11:51;99934.88;;;30.73;35.65
35716;BME280;21840;44.920;8.616;2022-09-09T12:14:35;99937.00;;;30.82;35.13
35716;BME280;21840;44.920;8.616;2022-09-09T12:19:41;99935.41;;;30.76;34.20
35716;BME280;21840;44.920;8.616;2022-09-09T12:22:09;99935.00;;;31.03;33.04
35716;BME280;21840;44.920;8.616;2022-09-09T12:24:41;99932.63;;;30.96;32.20
35716;BME280;21840;44.920;8.616;2022-09-09T12:32:22;99920.56;;;31.12;32.51
35716;BME280;21840;44.920;8.616;2022-09-09T12:37:37;99908.59;;;31.19;31.76
35716;BME280;21840;44.920;8.616;2022-09-09T12:40:20;99905.06;;;31.18;31.80
35716;BME280;21840;44.920;8.616;2022-09-09T12:42:45;99903.22;;;31.13;31.78
35716;BME280;21840;44.920;8.616;2022-09-09T12:45:15;99900.34;;;30.94;31.78
35716;BME280;21840;44.920;8.616;2022-09-09T12:52:46;99879.63;;;31.09;30.67
35716;BME280;21840;44.920;8.616;2022-09-09T12:55:16;99883.72;;;31.06;31.01
35716;BME280;21840;44.920;8.616;2022-09-09T12:57:42;99886.72;;;31.05;30.12
35716;BME280;21840;44.920;8.616;2022-09-09T13:00:15;99871.47;;;31.14;29.73
35716;BME280;21840;44.920;8.616;2022-09-09T13:02:52;99871.41;;;30.80;30.08
35716;BME280;21840;44.920;8.616;2022-09-09T13:05:19;99872.16;;;30.95;29.86
35716;BME280;21840;44.920;8.616;2022-09-09T13:07:45;99863.13;;;31.05;29.66
35716;BME280;21840;44.920;8.616;2022-09-09T13:10:12;99864.63;;;31.22;29.08
35716;BME280;21840;44.920;8.616;2022-09-09T13:12:38;99852.09;;;31.26;29.19
35716;BME280;21840;44.920;8.616;2022-09-09T13:15:04;99850.78;;;31.23;29.45
35716;BME280;21840;44.920;8.616;2022-09-09T13:17:36;99855.66;;;31.21;29.29
35716;BME280;21840;44.920;8.616;2022-09-09T13:20:01;99851.09;;;31.16;29.98
35716;BME280;21840;44.920;8.616;2022-09-09T13:22:31;99847.56;;;31.16;30.02
35716;BME280;21840;44.920;8.616;2022-09-09T13:25:21;99847.31;;;31.47;29.74
35716;BME280;21840;44.920;8.616;2022-09-09T13:35:34;99834.91;;;31.41;29.40
35716;BME280;21840;44.920;8.616;2022-09-09T13:38:07;99841.44;;;31.34;29.43
35716;BME280;21840;44.920;8.616;2022-09-09T13:40:34;99838.84;;;31.53;28.82
35716;BME280;21840;44.920;8.616;2022-09-09T13:42:59;99835.44;;;31.67;28.50
35716;BME280;21840;44.920;8.616;2022-09-09T13:45:25;99823.13;;;31.74;28.25
35716;BME280;21840;44.920;8.616;2022-09-09T13:47:54;99825.16;;;31.64;28.16
35716;BME280;21840;44.920;8.616;2022-09-09T13:50:29;99825.09;;;31.69;28.11
35716;BME280;21840;44.920;8.616;2022-09-09T13:52:56;99824.53;;;31.72;28.10
35716;BME280;21840;44.920;8.616;2022-09-09T13:55:24;99818.25;;;31.76;28.50
35716;BME280;21840;44.920;8.616;2022-09-09T13:57:59;99820.78;;;31.68;28.58
35716;BME280;21840;44.920;8.616;2022-09-09T14:00:30;99812.59;;;31.97;28.28
35716;BME280;21840;44.920;8.616;2022-09-09T14:02:56;99813.38;;;31.97;28.33
35716;BME280;21840;44.920;8.616;2022-09-09T14:05:21;99809.44;;;31.85;27.99
35716;BME280;21840;44.920;8.616;2022-09-09T14:07:47;99804.75;;;31.95;27.99
35716;BME280;21840;44.920;8.616;2022-09-09T14:10:13;99797.41;;;32.15;28.04
35716;BME280;21840;44.920;8.616;2022-09-09T14:12:38;99788.00;;;32.07;28.02
35716;BME280;21840;44.920;8.616;2022-09-09T14:15:04;99800.06;;;32.20;27.87
35716;BME280;21840;44.920;8.616;2022-09-09T14:17:30;99789.72;;;32.22;28.10
35716;BME280;21840;44.920;8.616;2022-09-09T14:19:56;99790.03;;;32.20;27.99
35716;BME280;21840;44.920;8.616;2022-09-09T14:22:22;99781.41;;;32.32;28.22
35716;BME280;21840;44.920;8.616;2022-09-09T14:24:48;99782.69;;;32.59;27.72
35716;BME280;21840;44.920;8.616;2022-09-09T14:27:13;99783.56;;;32.73;27.44
35716;BME280;21840;44.920;8.616;2022-09-09T14:29:39;99782.59;;;32.64;27.76
35716;BME280;21840;44.920;8.616;2022-09-09T14:32:04;99770.75;;;32.74;27.63
35716;BME280;21840;44.920;8.616;2022-09-09T14:34:29;99784.91;;;32.90;27.79
35716;BME280;21840;44.920;8.616;2022-09-09T14:36:57;99789.25;;;32.91;27.63
35716;BME280;21840;44.920;8.616;2022-09-09T14:39:22;99780.75;;;33.11;26.80
35716;BME280;21840;44.920;8.616;2022-09-09T14:41:48;99782.69;;;33.24;26.74
35716;BME280;21840;44.920;8.616;2022-09-09T14:44:13;99777.66;;;33.18;27.15
35716;BME280;21840;44.920;8.616;2022-09-09T14:46:38;99770.59;;;33.03;27.46
35716;BME280;21840;44.920;8.616;2022-09-09T14:49:04;99776.28;;;33.01;29.33
35716;BME280;21840;44.920;8.616;2022-09-09T14:51:29;99780.34;;;32.52;30.21
35716;BME280;21840;44.920;8.616;2022-09-09T14:53:58;99775.66;;;32.58;30.12
35716;BME280;21840;44.920;8.616;2022-09-09T14:56:25;99776.38;;;32.63;30.25
35716;BME280;21840;44.920;8.616;2022-09-09T14:58:53;99780.41;;;32.66;29.79
35716;BME280;21840;44.920;8.616;2022-09-09T15:01:19;99778.78;;;32.65;30.46
35716;BME280;21840;44.920;8.616;2022-09-09T15:03:52;99771.22;;;32.62;30.51
35716;BME280;21840;44.920;8.616;2022-09-09T15:06:18;99776.13;;;32.79;30.34
35716;BME280;21840;44.920;8.616;2022-09-09T15:08:44;99775.84;;;32.94;29.88
35716;BME280;21840;44.920;8.616;2022-09-09T15:11:10;99774.19;;;35.04;26.99
35716;BME280;21840;44.920;8.616;2022-09-09T15:13:37;99769.78;;;36.84;25.08
35716;BME280;21840;44.920;8.616;2022-09-09T15:16:03;99772.25;;;39.09;22.38
35716;BME280;21840;44.920;8.616;2022-09-09T15:18:29;99780.25;;;41.25;19.96
35716;BME280;21840;44.920;8.616;2022-09-09T15:20:54;99770.94;;;42.55;18.60
35716;BME280;21840;44.920;8.616;2022-09-09T15:23:20;99774.38;;;43.37;17.69